Time;durP1;ratioP1;P1;durP2;ratioP2;P2;SDS_P1;SDS_P2;PMS_P1;PMS_P2;Temp;Humidity;BMP_temperature;BMP_pressure;BME280_temperature;BME280_humidity;BME280_pressure;Samples;Min_cycle;Max_cycle;Signal;HPM_P1;HPM_P2
2022/03/10 07:20:11;;;;;;;33.30;25.20;;;14.40;52.40;;;;;;5083540;28;20827;-93
2022/03/10 07:25:21;;;;;;;29.47;26.23;;;3.10;71.00;;;;;;5068957;28;21174;-93
2022/03/10 07:27:55;;;;;;;30.30;27.10;;;2.80;74.50;;;;;;5060809;28;20642;-93
2022/03/10 07:30:54;;;;;;;31.13;27.97;;;2.60;76.00;;;;;;5062816;28;20717;-93
2022/03/10 07:33:22;;;;;;;29.83;26.10;;;2.40;77.20;;;;;;5070225;28;20664;-93
2022/03/10 07:36:10;;;;;;;29.27;26.27;;;2.20;78.60;;;;;;5070564;28;20704;-92
2022/03/10 07:41:27;;;;;;;28.60;25.33;;;2.30;80.30;;;;;;5067647;28;20627;-94
2022/03/10 11:45:24;;;;;;;3.90;3.60;;;19.00;42.60;;;;;;5042788;28;20667;-95
2022/03/10 11:51:43;;;;;;;3.10;2.80;;;19.90;41.80;;;;;;5030097;28;20643;-96
2022/03/10 11:57:06;;;;;;;3.80;3.50;;;20.80;40.50;;;;;;5041744;28;20648;-95
2022/03/10 12:06:19;;;;;;;5.60;3.63;;;19.70;40.40;;;;;;5004779;28;20628;-96
2022/03/10 12:30:21;;;;;;;4.30;4.00;;;19.10;36.90;;;;;;5024399;28;20608;-95
2022/03/10 12:35:47;;;;;;;5.30;4.90;;;19.80;37.70;;;;;;5017718;28;20616;-94
2022/03/10 12:38:44;;;;;;;4.93;4.47;;;20.50;37.00;;;;;;5019846;28;20650;-95
2022/03/10 12:53:40;;;;;;;5.60;4.50;;;20.90;35.20;;;;;;5133172;23;20715;-96
2022/03/10 13:11:48;;;;;;;4.80;4.40;;;22.10;33.20;;;;;;5045471;26;20646;-94
2022/03/10 13:14:34;;;;;;;5.70;4.60;;;22.90;32.30;;;;;;5038958;28;20643;-94
2022/03/10 13:17:00;;;;;;;4.47;4.07;;;23.10;31.20;;;;;;5032210;28;20688;-95
2022/03/10 13:19:30;;;;;;;6.60;6.00;;;23.10;31.90;;;;;;5045556;28;20659;-94
2022/03/10 13:25:07;;;;;;;4.63;4.23;;;21.30;31.60;;;;;;5110085;27;20863;-86
2022/03/10 13:27:35;;;;;;;5.20;4.80;;;19.10;31.50;;;;;;5083392;28;20620;-86
2022/03/10 13:30:02;;;;;;;6.00;5.50;;;17.90;32.70;;;;;;5084236;28;20628;-86
2022/03/10 13:32:32;;;;;;;5.50;5.00;;;18.50;33.10;;;;;;5082218;28;20759;-85
2022/03/10 13:35:02;;;;;;;5.30;4.83;;;18.00;33.30;;;;;;5088505;28;20687;-88
2022/03/10 13:37:29;;;;;;;5.30;4.83;;;18.70;32.40;;;;;;5081636;28;20621;-87
2022/03/10 13:39:57;;;;;;;4.90;4.50;;;19.50;33.60;;;;;;5084830;28;20627;-87
2022/03/10 13:42:33;;;;;;;4.33;3.93;;;19.80;32.20;;;;;;5081596;28;20622;-88
2022/03/10 13:45:03;;;;;;;4.30;3.90;;;19.10;30.90;;;;;;5082199;28;20660;-88
2022/03/10 13:47:47;;;;;;;5.10;4.70;;;18.10;30.10;;;;;;5081242;28;21230;-89
2022/03/10 13:50:17;;;;;;;4.40;4.00;;;18.10;32.00;;;;;;5082445;28;20678;-88
2022/03/10 13:52:45;;;;;;;6.23;4.43;;;19.00;31.80;;;;;;5082809;28;21155;-88
2022/03/10 13:55:12;;;;;;;5.30;4.90;;;17.80;31.30;;;;;;5085542;28;20976;-88
2022/03/10 13:57:46;;;;;;;5.23;4.30;;;20.20;31.80;;;;;;5080386;28;20612;-87
2022/03/10 14:00:14;;;;;;;5.77;4.93;;;19.40;30.20;;;;;;5084965;28;20644;-86
2022/03/10 14:02:50;;;;;;;4.27;3.87;;;19.30;30.90;;;;;;5083428;28;20628;-86
2022/03/10 14:05:19;;;;;;;4.83;4.43;;;18.30;30.60;;;;;;5084679;28;20659;-86
2022/03/10 14:08:11;;;;;;;5.30;4.90;;;18.40;31.10;;;;;;5086264;28;20878;-86
2022/03/10 14:10:39;;;;;;;4.63;4.23;;;19.00;30.50;;;;;;5074358;28;20657;-87
2022/03/10 14:13:09;;;;;;;4.67;4.23;;;18.60;30.20;;;;;;5083570;28;20995;-87
2022/03/10 14:15:37;;;;;;;4.47;4.17;;;20.20;30.90;;;;;;5079629;28;20660;-86
2022/03/10 14:18:09;;;;;;;5.90;3.70;;;19.40;28.40;;;;;;5080764;28;20624;-86
2022/03/10 14:20:48;;;;;;;3.80;3.40;;;17.60;29.30;;;;;;5085530;28;21502;-87
2022/03/10 14:23:16;;;;;;;4.57;4.17;;;17.40;29.30;;;;;;5080525;28;20671;-87
2022/03/10 14:25:48;;;;;;;4.20;3.50;;;19.10;29.90;;;;;;5081389;28;20710;-87
2022/03/10 14:28:18;;;;;;;3.93;3.50;;;17.70;28.70;;;;;;5082404;28;21004;-86
2022/03/10 14:30:50;;;;;;;3.90;3.50;;;16.80;29.40;;;;;;5082439;28;20628;-86
2022/03/10 14:33:18;;;;;;;4.13;3.67;;;17.60;29.40;;;;;;5080617;28;20688;-86
2022/03/10 14:35:45;;;;;;;4.20;3.60;;;18.00;29.30;;;;;;5074212;28;20633;-86
2022/03/10 14:38:14;;;;;;;4.03;3.50;;;18.50;28.60;;;;;;5060314;28;20640;-86
2022/03/10 14:40:42;;;;;;;4.47;4.10;;;18.40;28.70;;;;;;5071148;28;20643;-87
2022/03/10 14:43:09;;;;;;;4.70;4.30;;;19.10;29.40;;;;;;5069160;28;21226;-86
2022/03/10 14:45:38;;;;;;;4.27;3.90;;;19.80;30.40;;;;;;5061962;28;20711;-87
2022/03/10 14:48:06;;;;;;;4.80;4.40;;;19.20;29.10;;;;;;5071600;28;20641;-88
2022/03/10 14:50:33;;;;;;;5.30;4.90;;;21.20;29.90;;;;;;5070031;28;20640;-87
2022/03/10 14:53:00;;;;;;;4.37;4.07;;;21.90;28.90;;;;;;5071850;28;20698;-87
2022/03/10 14:55:27;;;;;;;4.23;3.93;;;22.00;29.30;;;;;;5067070;28;20664;-87
2022/03/10 14:57:56;;;;;;;5.00;4.13;;;23.30;28.50;;;;;;5076449;28;20632;-86
2022/03/10 15:00:25;;;;;;;5.03;4.63;;;20.00;28.10;;;;;;5077034;28;20712;-86
2022/03/10 15:02:53;;;;;;;3.63;3.43;;;18.80;29.00;;;;;;5068961;28;20627;-87
2022/03/10 15:05:20;;;;;;;4.37;4.00;;;19.50;28.80;;;;;;5074181;28;20617;-84
2022/03/10 15:07:47;;;;;;;6.00;3.80;;;18.90;28.70;;;;;;5069661;28;21005;-86
2022/03/10 15:10:17;;;;;;;4.80;4.40;;;19.30;29.30;;;;;;5063229;28;20629;-86
2022/03/10 15:12:44;;;;;;;5.00;4.60;;;18.50;28.30;;;;;;5072172;28;20627;-85
2022/03/10 15:15:12;;;;;;;6.03;5.53;;;17.70;29.20;;;;;;5068794;28;20665;-84
2022/03/10 15:17:39;;;;;;;5.73;5.23;;;18.30;30.00;;;;;;5070127;28;20616;-86
2022/03/10 15:20:10;;;;;;;5.87;5.37;;;18.60;29.60;;;;;;5065418;28;20632;-86
2022/03/10 15:22:54;;;;;;;7.30;4.30;;;19.20;30.70;;;;;;5067604;28;20634;-86
2022/03/10 15:25:23;;;;;;;5.60;4.90;;;19.10;29.40;;;;;;5062198;28;20633;-86
2022/03/10 15:27:50;;;;;;;6.73;5.30;;;19.20;30.20;;;;;;5068324;28;21115;-86
2022/03/10 15:30:17;;;;;;;5.17;4.70;;;20.50;30.00;;;;;;5068323;28;20637;-86
2022/03/10 15:32:44;;;;;;;6.43;4.97;;;18.40;29.50;;;;;;5068042;28;20621;-85
2022/03/10 15:35:15;;;;;;;6.13;5.50;;;17.60;29.90;;;;;;5072797;28;20659;-88
2022/03/10 15:37:44;;;;;;;5.33;4.87;;;18.70;31.10;;;;;;5066164;28;21164;-85
2022/03/10 15:40:12;;;;;;;7.17;5.03;;;18.30;29.40;;;;;;5069425;28;20633;-85
2022/03/10 15:42:41;;;;;;;5.47;4.93;;;18.70;29.70;;;;;;5066778;28;20660;-87
2022/03/10 15:45:08;;;;;;;5.03;4.53;;;18.50;28.90;;;;;;5057365;28;20613;-86
2022/03/10 15:47:36;;;;;;;9.50;4.57;;;18.60;29.70;;;;;;5065089;28;20619;-88
2022/03/10 15:50:05;;;;;;;6.43;5.60;;;18.20;29.70;;;;;;5070193;28;20711;-86
2022/03/10 15:52:39;;;;;;;9.30;5.67;;;17.20;29.70;;;;;;5069672;28;20637;-87
2022/03/10 15:55:08;;;;;;;5.70;5.10;;;16.70;31.20;;;;;;5072639;28;21194;-88
2022/03/10 15:57:37;;;;;;;10.67;6.00;;;17.60;30.10;;;;;;5071389;28;20715;-86
2022/03/10 16:00:09;;;;;;;7.20;5.60;;;17.70;29.70;;;;;;5066930;28;20728;-86
2022/03/10 16:02:37;;;;;;;5.70;4.50;;;17.50;29.90;;;;;;5067619;28;20821;-87
2022/03/10 16:05:04;;;;;;;5.70;5.20;;;17.80;29.90;;;;;;5072034;28;20731;-87
2022/03/10 16:07:31;;;;;;;6.17;5.47;;;17.40;30.20;;;;;;5066636;28;20691;-86
2022/03/10 16:09:59;;;;;;;6.60;6.00;;;16.80;30.00;;;;;;5067065;28;20629;-85
2022/03/10 16:12:26;;;;;;;9.80;5.63;;;16.40;30.20;;;;;;5064345;28;20636;-86
2022/03/10 16:14:53;;;;;;;6.07;5.47;;;17.20;30.60;;;;;;5070494;28;20669;-88
2022/03/10 16:17:19;;;;;;;6.00;5.50;;;15.90;29.90;;;;;;5070900;28;20627;-86
2022/03/10 16:19:46;;;;;;;7.23;5.97;;;16.40;30.80;;;;;;5066983;28;22131;-85
2022/03/10 16:22:13;;;;;;;6.40;5.80;;;16.00;30.50;;;;;;5073239;28;21202;-84
2022/03/10 16:24:41;;;;;;;6.10;5.60;;;16.10;31.00;;;;;;5065591;28;21265;-85
2022/03/10 16:27:09;;;;;;;8.93;5.57;;;16.30;31.60;;;;;;5067332;28;20639;-84
2022/03/10 16:29:39;;;;;;;5.90;5.40;;;16.10;31.00;;;;;;5069270;28;21414;-85
2022/03/10 16:32:08;;;;;;;5.93;5.30;;;16.40;31.60;;;;;;5060034;28;21051;-85
2022/03/10 16:34:36;;;;;;;6.83;5.90;;;17.00;31.50;;;;;;5070354;28;20676;-85
2022/03/10 16:37:03;;;;;;;6.40;5.20;;;16.60;32.20;;;;;;5068096;28;21233;-85
2022/03/10 16:39:31;;;;;;;7.17;5.60;;;16.30;32.00;;;;;;5063580;28;20740;-86
2022/03/10 16:41:57;;;;;;;6.10;5.50;;;16.40;32.50;;;;;;5071808;28;21374;-85
2022/03/10 16:44:27;;;;;;;6.07;5.53;;;15.20;32.00;;;;;;5067774;28;20663;-85
2022/03/10 16:46:54;;;;;;;7.60;5.97;;;14.90;32.70;;;;;;5068454;28;20625;-86
2022/03/10 16:49:21;;;;;;;11.73;8.10;;;14.40;33.30;;;;;;5066314;28;20703;-83
2022/03/10 16:51:48;;;;;;;7.70;6.90;;;14.20;33.40;;;;;;5070903;28;20617;-86
2022/03/10 16:54:16;;;;;;;8.43;6.27;;;13.80;33.80;;;;;;5066938;28;20688;-84
2022/03/10 16:56:43;;;;;;;7.07;5.90;;;13.60;34.00;;;;;;5070293;28;20745;-86
2022/03/10 16:59:11;;;;;;;6.60;5.17;;;13.40;34.40;;;;;;5067959;28;20625;-85
2022/03/10 17:01:40;;;;;;;6.63;6.03;;;13.30;34.80;;;;;;5065955;28;20629;-84
2022/03/10 17:04:07;;;;;;;6.67;6.03;;;13.40;34.80;;;;;;5063763;28;20653;-85
2022/03/10 17:06:35;;;;;;;7.33;6.50;;;13.30;34.90;;;;;;5068047;28;20629;-84
2022/03/10 17:09:02;;;;;;;9.03;8.13;;;13.10;35.00;;;;;;5064843;28;20618;-85
2022/03/10 17:11:29;;;;;;;7.37;6.67;;;12.70;34.60;;;;;;5060720;28;20650;-85
2022/03/10 17:13:56;;;;;;;9.97;5.80;;;12.80;35.40;;;;;;5065970;28;20734;-85
2022/03/10 17:16:24;;;;;;;6.97;6.37;;;12.60;35.40;;;;;;5073731;28;20632;-85
2022/03/10 17:18:52;;;;;;;6.30;5.70;;;12.60;35.60;;;;;;5063592;28;21038;-85
2022/03/10 17:21:20;;;;;;;6.60;6.00;;;12.60;35.30;;;;;;5063688;28;20609;-86
2022/03/10 17:23:47;;;;;;;7.63;6.90;;;12.40;35.10;;;;;;5062026;28;20671;-86
2022/03/10 17:26:15;;;;;;;7.03;6.43;;;12.20;35.30;;;;;;5063035;28;20629;-85
2022/03/10 17:28:42;;;;;;;6.10;5.53;;;12.10;35.60;;;;;;5066046;28;20664;-84
2022/03/10 17:31:09;;;;;;;5.93;5.43;;;12.10;35.80;;;;;;5060983;28;20629;-86
2022/03/10 17:33:35;;;;;;;6.87;6.17;;;11.90;35.80;;;;;;5067803;28;20651;-86
2022/03/10 17:36:04;;;;;;;7.33;6.67;;;11.80;35.80;;;;;;5065819;28;20665;-83
2022/03/10 17:38:31;;;;;;;8.27;6.80;;;11.70;36.00;;;;;;5063711;28;20616;-85
2022/03/10 17:40:58;;;;;;;7.03;6.40;;;11.50;35.70;;;;;;5062960;28;21209;-86
2022/03/10 17:43:25;;;;;;;6.53;5.90;;;11.50;36.20;;;;;;5066374;28;20664;-86
2022/03/10 17:45:54;;;;;;;6.63;5.60;;;11.40;36.00;;;;;;5062150;28;20651;-87
2022/03/10 17:48:23;;;;;;;6.43;5.63;;;11.40;36.30;;;;;;5059845;28;20616;-86
2022/03/10 17:50:50;;;;;;;7.50;6.10;;;11.10;36.60;;;;;;5062313;28;20656;-85
2022/03/10 17:53:18;;;;;;;8.83;6.93;;;11.10;36.90;;;;;;5067276;28;21516;-85
2022/03/10 17:55:45;;;;;;;8.60;7.70;;;11.00;37.00;;;;;;5061898;28;20652;-85
2022/03/10 17:58:12;;;;;;;8.47;7.67;;;11.00;37.20;;;;;;5062402;28;20629;-85
2022/03/10 18:00:39;;;;;;;9.07;8.17;;;10.90;37.50;;;;;;5061029;28;20621;-86
2022/03/10 18:03:07;;;;;;;8.83;7.93;;;10.90;37.80;;;;;;5059135;28;20648;-85
2022/03/10 18:05:33;;;;;;;8.53;7.47;;;10.90;38.10;;;;;;5048799;28;21187;-85
2022/03/10 18:08:02;;;;;;;8.57;7.63;;;10.70;38.30;;;;;;5063907;28;21367;-85
2022/03/10 18:10:31;;;;;;;10.77;7.70;;;10.70;38.70;;;;;;5063197;28;20632;-84
2022/03/10 18:12:58;;;;;;;12.83;8.60;;;10.70;39.00;;;;;;5066310;28;20648;-84
2022/03/10 18:15:25;;;;;;;11.33;7.97;;;10.60;39.20;;;;;;5064977;28;20669;-84
2022/03/10 18:17:52;;;;;;;9.20;8.23;;;10.60;39.30;;;;;;5069205;28;20640;-85
2022/03/10 18:20:19;;;;;;;9.27;8.37;;;10.40;39.60;;;;;;5067075;28;20643;-86
2022/03/10 18:22:46;;;;;;;9.17;8.23;;;10.30;39.90;;;;;;5063120;28;20656;-84
2022/03/10 18:25:13;;;;;;;8.60;7.80;;;10.30;39.90;;;;;;5070299;28;20612;-85
2022/03/10 18:27:42;;;;;;;10.33;8.77;;;10.20;40.20;;;;;;5064825;28;21186;-85
2022/03/10 18:30:10;;;;;;;11.53;8.93;;;10.10;40.20;;;;;;5062484;28;21194;-85
2022/03/10 18:32:37;;;;;;;10.50;8.17;;;10.10;40.40;;;;;;5064367;28;20663;-84
2022/03/10 18:35:05;;;;;;;9.10;7.90;;;10.00;40.50;;;;;;5073485;28;21210;-86
2022/03/10 18:37:32;;;;;;;12.90;8.47;;;10.00;40.70;;;;;;5071818;28;21294;-84
2022/03/10 18:40:01;;;;;;;8.40;7.70;;;9.90;41.90;;;;;;5070821;28;21249;-83
2022/03/10 18:42:27;;;;;;;9.80;7.80;;;9.80;42.00;;;;;;5066988;28;20632;-86
2022/03/10 18:44:56;;;;;;;8.63;7.80;;;9.70;42.20;;;;;;5071955;28;20683;-86
2022/03/10 18:47:23;;;;;;;9.87;8.87;;;9.60;42.20;;;;;;5066503;28;20628;-85
2022/03/10 18:49:49;;;;;;;9.03;8.13;;;9.60;42.30;;;;;;5064528;28;20629;-85
2022/03/10 18:52:17;;;;;;;11.00;9.90;;;9.50;42.20;;;;;;5064150;28;20625;-85
2022/03/10 18:54:44;;;;;;;9.33;8.43;;;9.40;42.40;;;;;;5069508;28;20767;-85
2022/03/10 18:57:11;;;;;;;9.20;8.30;;;9.40;42.70;;;;;;5066872;28;20671;-85
2022/03/10 18:59:39;;;;;;;9.90;8.90;;;9.40;42.80;;;;;;5065363;28;20625;-85
2022/03/10 19:02:09;;;;;;;8.83;8.13;;;9.30;43.20;;;;;;5066255;28;20635;-84
2022/03/10 19:04:37;;;;;;;9.33;8.53;;;9.30;42.90;;;;;;5067743;28;21025;-86
2022/03/10 19:07:04;;;;;;;10.80;9.70;;;9.20;43.00;;;;;;5064079;28;20630;-84
2022/03/10 19:09:31;;;;;;;10.80;8.23;;;9.20;42.90;;;;;;5064951;28;20636;-85
2022/03/10 19:11:58;;;;;;;9.77;8.43;;;9.20;42.80;;;;;;5060408;28;20635;-87
2022/03/10 19:14:26;;;;;;;9.00;8.20;;;9.20;42.60;;;;;;5066156;28;20732;-85
2022/03/10 19:16:52;;;;;;;10.03;9.10;;;9.20;42.30;;;;;;5070756;28;20621;-85
2022/03/10 19:19:22;;;;;;;10.03;9.03;;;9.20;42.10;;;;;;5061786;28;21290;-86
2022/03/10 19:21:51;;;;;;;8.97;8.13;;;9.10;41.90;;;;;;5071513;28;20623;-84
2022/03/10 19:24:18;;;;;;;10.00;9.10;;;9.10;41.80;;;;;;5065574;28;20664;-85
2022/03/10 19:26:45;;;;;;;9.00;8.10;;;9.00;41.70;;;;;;5064819;28;20626;-86
2022/03/10 19:29:12;;;;;;;10.10;9.20;;;9.10;41.50;;;;;;5068778;28;20644;-85
2022/03/10 19:31:41;;;;;;;9.37;8.47;;;9.00;41.50;;;;;;5060836;28;20725;-85
2022/03/10 19:34:08;;;;;;;13.60;12.20;;;8.90;41.30;;;;;;5067669;28;21691;-86
2022/03/10 19:36:39;;;;;;;11.53;10.33;;;8.90;41.20;;;;;;5059627;28;20668;-85
2022/03/10 19:39:06;;;;;;;9.83;8.23;;;9.00;40.80;;;;;;5063162;28;20720;-86
2022/03/10 19:41:33;;;;;;;10.93;9.97;;;8.90;40.70;;;;;;5065208;28;20647;-86
2022/03/10 19:44:00;;;;;;;8.90;7.73;;;8.80;40.60;;;;;;5061977;28;20669;-86
2022/03/10 19:46:27;;;;;;;7.57;6.90;;;8.90;40.40;;;;;;5070481;28;20617;-85
2022/03/10 19:48:54;;;;;;;7.17;6.47;;;8.80;40.20;;;;;;5068942;28;20632;-85
2022/03/10 19:51:22;;;;;;;8.03;7.33;;;8.70;40.30;;;;;;5066649;28;20698;-84
2022/03/10 19:53:51;;;;;;;7.50;6.80;;;8.60;40.60;;;;;;5065060;28;20736;-86
2022/03/10 19:56:18;;;;;;;7.20;6.50;;;8.50;40.50;;;;;;5063098;28;20668;-85
2022/03/10 19:58:45;;;;;;;7.93;7.23;;;8.50;40.30;;;;;;5070901;28;20629;-85
2022/03/10 20:01:12;;;;;;;7.83;7.03;;;8.40;40.30;;;;;;5065819;28;20609;-85
2022/03/10 20:03:39;;;;;;;10.60;6.40;;;8.40;40.20;;;;;;5064354;28;20657;-86
2022/03/10 20:06:06;;;;;;;9.70;6.20;;;8.60;40.10;;;;;;5065562;28;20628;-85
2022/03/10 20:08:33;;;;;;;6.27;5.77;;;8.50;40.10;;;;;;5060409;28;20651;-87
2022/03/10 20:11:02;;;;;;;6.43;5.93;;;8.50;40.10;;;;;;5061149;28;20633;-85
2022/03/10 20:13:33;;;;;;;6.40;5.90;;;8.50;40.40;;;;;;5067521;28;20649;-86
2022/03/10 20:16:00;;;;;;;6.27;5.70;;;8.50;40.40;;;;;;5066044;28;20744;-86
2022/03/10 20:18:27;;;;;;;6.73;5.80;;;8.50;40.60;;;;;;5062363;28;20625;-85
2022/03/10 20:20:54;;;;;;;5.93;4.97;;;8.40;40.90;;;;;;5071907;28;20638;-86
2022/03/10 20:23:21;;;;;;;6.70;6.10;;;8.40;41.00;;;;;;5067838;28;20718;-85
2022/03/10 20:25:48;;;;;;;6.00;5.50;;;8.30;41.10;;;;;;5065096;28;20621;-86
2022/03/10 20:28:16;;;;;;;6.17;5.47;;;8.30;41.30;;;;;;5061158;28;20609;-84
2022/03/10 20:30:43;;;;;;;7.30;6.60;;;8.50;41.20;;;;;;5059592;28;20613;-86
2022/03/10 20:33:10;;;;;;;5.33;4.80;;;8.50;41.20;;;;;;5063547;28;21008;-84
2022/03/10 20:35:39;;;;;;;5.60;5.10;;;8.50;41.40;;;;;;5065769;28;20665;-86
2022/03/10 20:38:06;;;;;;;5.47;4.97;;;8.50;41.40;;;;;;5062420;28;20613;-84
2022/03/10 20:40:33;;;;;;;4.90;4.50;;;8.60;41.40;;;;;;5067708;28;21195;-85
2022/03/10 20:43:01;;;;;;;5.00;4.60;;;8.50;41.50;;;;;;5064356;28;20759;-86
2022/03/10 20:45:31;;;;;;;5.90;5.40;;;8.60;41.40;;;;;;5063859;28;20632;-86
2022/03/10 20:47:58;;;;;;;6.73;5.13;;;8.60;41.80;;;;;;5062617;28;20666;-85
2022/03/10 20:50:27;;;;;;;5.73;5.20;;;8.60;41.60;;;;;;5066213;28;21163;-85
2022/03/10 20:52:54;;;;;;;5.73;4.60;;;8.60;41.70;;;;;;5070317;28;20635;-85
2022/03/10 20:55:21;;;;;;;6.73;5.83;;;8.60;41.90;;;;;;5064523;28;20656;-85
2022/03/10 20:57:48;;;;;;;6.27;4.90;;;8.60;42.10;;;;;;5058071;28;20610;-84
2022/03/10 21:00:16;;;;;;;5.70;4.70;;;8.60;42.10;;;;;;5069199;28;20637;-84
2022/03/10 21:02:44;;;;;;;6.43;5.30;;;8.60;42.10;;;;;;5072483;28;20751;-85
2022/03/10 21:05:12;;;;;;;6.20;5.60;;;8.60;42.30;;;;;;5067795;28;20630;-85
2022/03/10 21:07:39;;;;;;;6.30;5.13;;;8.50;42.30;;;;;;5066200;28;21248;-84
2022/03/10 21:10:08;;;;;;;5.67;5.17;;;8.50;42.20;;;;;;5064316;28;20645;-84
2022/03/10 21:12:35;;;;;;;5.93;5.10;;;8.40;42.40;;;;;;5062765;28;21247;-83
2022/03/10 21:15:02;;;;;;;5.40;4.33;;;8.30;42.60;;;;;;5066685;28;20663;-86
2022/03/10 21:17:29;;;;;;;6.03;5.23;;;8.30;42.90;;;;;;5071138;28;20620;-84
2022/03/10 21:19:57;;;;;;;5.33;4.90;;;8.20;43.00;;;;;;5070743;28;20639;-84
2022/03/10 21:22:24;;;;;;;4.80;4.40;;;8.10;43.20;;;;;;5067089;28;20634;-85
2022/03/10 21:24:51;;;;;;;5.30;4.80;;;8.10;43.30;;;;;;5067586;28;20664;-85
2022/03/10 21:27:18;;;;;;;5.00;4.53;;;8.10;43.30;;;;;;5068529;28;20992;-85
2022/03/10 21:29:45;;;;;;;4.97;4.57;;;8.00;43.30;;;;;;5072712;28;20616;-85
2022/03/10 21:32:12;;;;;;;5.17;4.77;;;8.10;43.30;;;;;;5091768;28;20639;-84
2022/03/10 21:34:38;;;;;;;5.10;4.70;;;8.00;43.40;;;;;;5089149;28;20648;-85
2022/03/10 21:37:06;;;;;;;5.13;4.63;;;8.00;43.70;;;;;;5084222;28;20665;-85
2022/03/10 21:39:33;;;;;;;5.33;4.83;;;7.90;43.90;;;;;;5074678;28;20629;-85
2022/03/10 21:42:00;;;;;;;5.80;5.40;;;7.90;44.00;;;;;;5065152;28;20627;-85
2022/03/10 21:44:29;;;;;;;5.50;5.10;;;7.80;44.30;;;;;;5065930;28;20645;-85
2022/03/10 21:46:56;;;;;;;4.97;4.47;;;7.80;44.50;;;;;;5074946;28;20639;-85
2022/03/10 21:49:23;;;;;;;5.73;5.23;;;7.80;44.70;;;;;;5066774;28;20629;-85
2022/03/10 21:51:51;;;;;;;5.30;4.80;;;7.70;44.60;;;;;;5072849;28;20625;-85
2022/03/10 21:54:19;;;;;;;6.50;5.40;;;7.70;44.70;;;;;;5066963;28;20644;-84
2022/03/10 21:56:47;;;;;;;5.13;4.73;;;7.70;45.00;;;;;;5068205;28;20705;-85
2022/03/10 21:59:14;;;;;;;5.53;5.03;;;7.60;45.10;;;;;;5070461;28;20625;-85
2022/03/10 22:01:41;;;;;;;5.40;4.90;;;7.50;45.20;;;;;;5070390;28;20624;-84
2022/03/10 22:04:08;;;;;;;4.80;4.40;;;7.60;45.50;;;;;;5072296;28;20641;-85
2022/03/10 22:06:37;;;;;;;5.10;4.20;;;7.50;45.50;;;;;;5075299;28;20628;-84
2022/03/10 22:09:04;;;;;;;5.83;4.77;;;7.40;46.00;;;;;;5068244;28;20725;-84
2022/03/10 22:11:35;;;;;;;6.80;6.17;;;7.60;45.80;;;;;;5066489;28;20628;-85
2022/03/10 22:14:01;;;;;;;5.77;5.30;;;7.60;46.10;;;;;;5067337;28;20644;-85
2022/03/10 22:16:28;;;;;;;5.73;5.23;;;7.60;46.20;;;;;;5068779;28;20678;-84
2022/03/10 22:18:55;;;;;;;5.20;4.63;;;7.50;46.40;;;;;;5061016;28;20742;-85
2022/03/10 22:21:23;;;;;;;5.57;5.07;;;7.40;46.60;;;;;;5075360;28;20632;-84
2022/03/10 22:23:50;;;;;;;6.17;5.67;;;7.40;46.80;;;;;;5071754;28;21029;-84
2022/03/10 22:26:17;;;;;;;6.10;5.50;;;7.30;46.90;;;;;;5073597;28;20640;-85
2022/03/10 22:28:45;;;;;;;6.33;5.73;;;7.40;47.00;;;;;;5074014;28;20627;-85
2022/03/10 22:31:12;;;;;;;6.40;5.70;;;7.30;47.10;;;;;;5073183;28;20620;-84
2022/03/10 22:33:39;;;;;;;6.60;6.00;;;7.40;47.20;;;;;;5081453;28;20639;-83
2022/03/10 22:36:06;;;;;;;8.53;6.37;;;7.40;47.20;;;;;;5081301;28;20660;-84
2022/03/10 22:38:34;;;;;;;6.33;5.83;;;7.30;47.60;;;;;;5072858;28;20610;-85
2022/03/10 22:41:01;;;;;;;7.33;6.63;;;7.30;47.80;;;;;;5074555;28;20626;-84
2022/03/10 22:43:29;;;;;;;8.13;6.80;;;7.20;48.00;;;;;;5079980;28;20643;-85
2022/03/10 22:45:57;;;;;;;7.40;6.70;;;7.10;48.20;;;;;;5079754;28;20698;-84
2022/03/10 22:48:24;;;;;;;8.83;8.03;;;7.10;48.70;;;;;;5051993;28;21074;-84
2022/03/10 22:56:20;;;;;;;8.57;7.67;;;7.00;49.30;;;;;;5072086;28;20659;-84
2022/03/10 22:58:47;;;;;;;8.60;7.70;;;7.00;49.60;;;;;;5070196;28;21305;-84
2022/03/10 23:01:15;;;;;;;10.37;7.43;;;6.90;50.00;;;;;;5074605;28;20670;-85
2022/03/10 23:03:42;;;;;;;7.77;7.17;;;6.90;50.30;;;;;;5073598;28;20692;-85
2022/03/10 23:08:54;;;;;;;9.30;8.20;;;6.80;50.90;;;;;;5071489;28;20616;-84
2022/03/10 23:11:20;;;;;;;9.00;8.20;;;6.80;51.30;;;;;;5074700;28;20657;-85
2022/03/10 23:13:47;;;;;;;9.40;8.50;;;6.80;51.40;;;;;;5065658;28;20617;-85
2022/03/10 23:16:16;;;;;;;9.47;8.47;;;6.80;51.70;;;;;;5069770;28;20679;-84
2022/03/10 23:18:42;;;;;;;10.97;10.10;;;6.70;51.90;;;;;;5075358;28;21159;-84
2022/03/10 23:21:09;;;;;;;23.57;21.30;;;6.60;52.10;;;;;;5075955;28;20671;-85
2022/03/10 23:23:36;;;;;;;24.60;22.63;;;6.60;52.50;;;;;;5069993;28;20636;-84
2022/03/10 23:26:03;;;;;;;13.27;12.10;;;6.60;52.80;;;;;;5070840;28;21137;-85
2022/03/10 23:28:30;;;;;;;13.07;11.87;;;6.50;53.00;;;;;;5071015;28;20636;-85
2022/03/10 23:30:57;;;;;;;35.57;28.33;;;6.40;53.40;;;;;;5063896;28;21012;-84
2022/03/10 23:33:25;;;;;;;47.80;35.70;;;6.40;53.70;;;;;;5074177;28;20631;-85
2022/03/10 23:35:52;;;;;;;25.43;19.27;;;6.40;54.00;;;;;;5073418;28;20665;-84
2022/03/10 23:38:18;;;;;;;21.73;17.10;;;6.40;54.50;;;;;;5064526;28;20674;-85
2022/03/10 23:40:45;;;;;;;13.20;11.57;;;6.30;54.60;;;;;;5070164;28;20652;-84
2022/03/10 23:43:12;;;;;;;25.37;19.37;;;6.30;55.10;;;;;;5070998;28;20646;-83
2022/03/10 23:45:39;;;;;;;17.27;13.97;;;6.20;55.60;;;;;;5069094;28;20629;-85
2022/03/10 23:48:06;;;;;;;45.23;34.30;;;6.20;56.10;;;;;;5072891;28;20676;-83
2022/03/10 23:50:35;;;;;;;26.97;22.20;;;6.10;56.40;;;;;;5070380;28;20663;-83
2022/03/10 23:53:02;;;;;;;27.73;20.07;;;6.10;56.70;;;;;;5068909;28;20635;-84
2022/03/10 23:55:31;;;;;;;19.27;17.17;;;6.00;57.10;;;;;;5070220;28;20613;-85
2022/03/10 23:57:58;;;;;;;32.77;24.90;;;6.00;57.50;;;;;;5082279;28;20662;-84
